sensor_id;sensor_type;location;lat;lon;timestamp;P1;durP1;ratioP1;P2;durP2;ratioP2
47882;SDS011;37739;50.350;7.578;2023-06-14T00:00:52;4.73;;;4.33;;
47882;SDS011;37739;50.350;7.578;2023-06-14T00:03:20;5.70;;;4.10;;
47882;SDS011;37739;50.350;7.578;2023-06-14T00:05:47;4.87;;;4.27;;
47882;SDS011;37739;50.350;7.578;2023-06-14T00:08:13;4.13;;;3.73;;
47882;SDS011;37739;50.350;7.578;2023-06-14T00:10:41;4.73;;;4.23;;
47882;SDS011;37739;50.350;7.578;2023-06-14T00:13:11;3.90;;;3.60;;
47882;SDS011;37739;50.350;7.578;2023-06-14T00:15:39;4.20;;;3.90;;
47882;SDS011;37739;50.350;7.578;2023-06-14T00:18:04;4.50;;;4.07;;
47882;SDS011;37739;50.350;7.578;2023-06-14T00:20:32;3.73;;;3.33;;
47882;SDS011;37739;50.350;7.578;2023-06-14T00:22:59;4.47;;;4.17;;
47882;SDS011;37739;50.350;7.578;2023-06-14T00:25:25;4.00;;;3.70;;
47882;SDS011;37739;50.350;7.578;2023-06-14T00:27:51;3.60;;;3.30;;
47882;SDS011;37739;50.350;7.578;2023-06-14T00:30:16;4.43;;;4.03;;
47882;SDS011;37739;50.350;7.578;2023-06-14T00:32:44;4.00;;;3.60;;
47882;SDS011;37739;50.350;7.578;2023-06-14T00:35:10;4.03;;;3.73;;
47882;SDS011;37739;50.350;7.578;2023-06-14T00:37:36;5.50;;;4.40;;
47882;SDS011;37739;50.350;7.578;2023-06-14T00:40:05;4.47;;;4.17;;
47882;SDS011;37739;50.350;7.578;2023-06-14T00:42:31;4.30;;;3.90;;
47882;SDS011;37739;50.350;7.578;2023-06-14T00:44:57;4.40;;;3.77;;
47882;SDS011;37739;50.350;7.578;2023-06-14T00:47:25;4.10;;;3.70;;
47882;SDS011;37739;50.350;7.578;2023-06-14T00:49:54;5.17;;;3.80;;
47882;SDS011;37739;50.350;7.578;2023-06-14T00:52:24;4.10;;;3.70;;
47882;SDS011;37739;50.350;7.578;2023-06-14T00:54:50;3.77;;;3.47;;
47882;SDS011;37739;50.350;7.578;2023-06-14T00:57:18;4.37;;;3.97;;
47882;SDS011;37739;50.350;7.578;2023-06-14T00:59:46;3.90;;;3.60;;
47882;SDS011;37739;50.350;7.578;2023-06-14T01:02:13;4.40;;;4.00;;
47882;SDS011;37739;50.350;7.578;2023-06-14T01:04:46;4.43;;;4.03;;
47882;SDS011;37739;50.350;7.578;2023-06-14T01:07:18;4.23;;;3.50;;
47882;SDS011;37739;50.350;7.578;2023-06-14T01:15:39;4.10;;;3.67;;
47882;SDS011;37739;50.350;7.578;2023-06-14T01:18:05;4.57;;;4.00;;
47882;SDS011;37739;50.350;7.578;2023-06-14T01:20:32;4.80;;;4.00;;
47882;SDS011;37739;50.350;7.578;2023-06-14T01:23:01;3.87;;;3.43;;
47882;SDS011;37739;50.350;7.578;2023-06-14T01:25:29;3.80;;;3.40;;
47882;SDS011;37739;50.350;7.578;2023-06-14T01:27:58;3.90;;;3.60;;
47882;SDS011;37739;50.350;7.578;2023-06-14T01:30:26;3.53;;;3.23;;
47882;SDS011;37739;50.350;7.578;2023-06-14T01:32:53;3.43;;;3.10;;
47882;SDS011;37739;50.350;7.578;2023-06-14T01:35:19;5.53;;;3.87;;
47882;SDS011;37739;50.350;7.578;2023-06-14T01:37:46;3.77;;;3.30;;
47882;SDS011;37739;50.350;7.578;2023-06-14T01:40:15;6.13;;;4.10;;
47882;SDS011;37739;50.350;7.578;2023-06-14T01:42:45;3.60;;;3.40;;
47882;SDS011;37739;50.350;7.578;2023-06-14T01:45:12;3.77;;;3.37;;
47882;SDS011;37739;50.350;7.578;2023-06-14T01:47:37;3.53;;;3.23;;
47882;SDS011;37739;50.350;7.578;2023-06-14T01:50:03;3.67;;;3.37;;
47882;SDS011;37739;50.350;7.578;2023-06-14T01:52:29;4.00;;;3.57;;
47882;SDS011;37739;50.350;7.578;2023-06-14T01:54:55;4.50;;;4.10;;
47882;SDS011;37739;50.350;7.578;2023-06-14T01:57:20;4.63;;;3.80;;
47882;SDS011;37739;50.350;7.578;2023-06-14T01:59:47;3.50;;;3.27;;
47882;SDS011;37739;50.350;7.578;2023-06-14T02:02:15;4.43;;;4.03;;
47882;SDS011;37739;50.350;7.578;2023-06-14T02:04:41;5.70;;;3.50;;
47882;SDS011;37739;50.350;7.578;2023-06-14T02:07:09;4.70;;;4.30;;
47882;SDS011;37739;50.350;7.578;2023-06-14T02:09:34;4.50;;;4.07;;
47882;SDS011;37739;50.350;7.578;2023-06-14T02:12:02;4.40;;;3.97;;
47882;SDS011;37739;50.350;7.578;2023-06-14T02:14:30;4.17;;;3.83;;
47882;SDS011;37739;50.350;7.578;2023-06-14T02:16:55;4.10;;;3.13;;
47882;SDS011;37739;50.350;7.578;2023-06-14T02:19:21;4.30;;;3.50;;
47882;SDS011;37739;50.350;7.578;2023-06-14T02:21:46;3.87;;;3.53;;
47882;SDS011;37739;50.350;7.578;2023-06-14T02:24:12;3.90;;;3.60;;
47882;SDS011;37739;50.350;7.578;2023-06-14T02:26:38;3.90;;;3.50;;
47882;SDS011;37739;50.350;7.578;2023-06-14T02:29:06;5.07;;;3.73;;
47882;SDS011;37739;50.350;7.578;2023-06-14T02:31:37;4.03;;;3.73;;
47882;SDS011;37739;50.350;7.578;2023-06-14T02:34:05;4.27;;;3.77;;
47882;SDS011;37739;50.350;7.578;2023-06-14T02:36:37;4.90;;;4.20;;
47882;SDS011;37739;50.350;7.578;2023-06-14T02:39:07;4.67;;;4.27;;
47882;SDS011;37739;50.350;7.578;2023-06-14T02:41:35;3.73;;;3.43;;
47882;SDS011;37739;50.350;7.578;2023-06-14T02:44:00;3.87;;;3.57;;
47882;SDS011;37739;50.350;7.578;2023-06-14T02:46:26;7.30;;;3.60;;
47882;SDS011;37739;50.350;7.578;2023-06-14T02:48:51;4.43;;;4.03;;
47882;SDS011;37739;50.350;7.578;2023-06-14T02:51:18;4.00;;;3.70;;
47882;SDS011;37739;50.350;7.578;2023-06-14T02:53:44;4.13;;;3.83;;
47882;SDS011;37739;50.350;7.578;2023-06-14T02:56:09;4.37;;;3.97;;
47882;SDS011;37739;50.350;7.578;2023-06-14T02:58:36;4.00;;;3.70;;
47882;SDS011;37739;50.350;7.578;2023-06-14T03:01:08;5.40;;;4.13;;
47882;SDS011;37739;50.350;7.578;2023-06-14T03:03:35;5.40;;;3.90;;
47882;SDS011;37739;50.350;7.578;2023-06-14T03:06:00;4.10;;;3.70;;
47882;SDS011;37739;50.350;7.578;2023-06-14T03:08:30;4.00;;;3.70;;
47882;SDS011;37739;50.350;7.578;2023-06-14T03:11:03;4.30;;;4.00;;
47882;SDS011;37739;50.350;7.578;2023-06-14T03:13:30;4.40;;;3.90;;
47882;SDS011;37739;50.350;7.578;2023-06-14T03:15:57;3.90;;;3.60;;
47882;SDS011;37739;50.350;7.578;2023-06-14T03:18:22;3.80;;;3.50;;
47882;SDS011;37739;50.350;7.578;2023-06-14T03:20:54;5.33;;;3.40;;
47882;SDS011;37739;50.350;7.578;2023-06-14T03:23:21;4.20;;;3.50;;
47882;SDS011;37739;50.350;7.578;2023-06-14T03:25:47;4.40;;;4.10;;
47882;SDS011;37739;50.350;7.578;2023-06-14T03:28:13;4.37;;;3.40;;
47882;SDS011;37739;50.350;7.578;2023-06-14T03:30:38;3.83;;;3.40;;
47882;SDS011;37739;50.350;7.578;2023-06-14T03:33:03;3.90;;;3.13;;
47882;SDS011;37739;50.350;7.578;2023-06-14T03:35:29;3.80;;;3.50;;
47882;SDS011;37739;50.350;7.578;2023-06-14T03:37:55;3.60;;;3.23;;
47882;SDS011;37739;50.350;7.578;2023-06-14T03:40:20;3.80;;;3.50;;
47882;SDS011;37739;50.350;7.578;2023-06-14T03:42:46;4.47;;;4.07;;
47882;SDS011;37739;50.350;7.578;2023-06-14T03:45:16;3.80;;;3.50;;
47882;SDS011;37739;50.350;7.578;2023-06-14T03:47:44;3.97;;;3.57;;
47882;SDS011;37739;50.350;7.578;2023-06-14T03:50:09;3.67;;;3.37;;
47882;SDS011;37739;50.350;7.578;2023-06-14T03:52:35;3.60;;;3.30;;
47882;SDS011;37739;50.350;7.578;2023-06-14T03:55:07;3.73;;;3.43;;
47882;SDS011;37739;50.350;7.578;2023-06-14T03:57:38;4.50;;;3.60;;
47882;SDS011;37739;50.350;7.578;2023-06-14T04:00:03;6.27;;;3.10;;
47882;SDS011;37739;50.350;7.578;2023-06-14T04:02:33;5.30;;;3.60;;
47882;SDS011;37739;50.350;7.578;2023-06-14T04:05:01;3.70;;;3.40;;
47882;SDS011;37739;50.350;7.578;2023-06-14T04:07:29;3.43;;;3.03;;
47882;SDS011;37739;50.350;7.578;2023-06-14T04:09:55;4.37;;;3.20;;
47882;SDS011;37739;50.350;7.578;2023-06-14T04:12:22;4.00;;;3.70;;
47882;SDS011;37739;50.350;7.578;2023-06-14T04:14:50;3.60;;;3.30;;
47882;SDS011;37739;50.350;7.578;2023-06-14T04:17:20;6.33;;;3.57;;
47882;SDS011;37739;50.350;7.578;2023-06-14T04:19:45;3.90;;;3.60;;
47882;SDS011;37739;50.350;7.578;2023-06-14T04:22:12;3.90;;;3.60;;
47882;SDS011;37739;50.350;7.578;2023-06-14T04:24:37;3.90;;;3.50;;
47882;SDS011;37739;50.350;7.578;2023-06-14T04:27:03;3.20;;;2.83;;
47882;SDS011;37739;50.350;7.578;2023-06-14T04:29:34;4.07;;;3.20;;
47882;SDS011;37739;50.350;7.578;2023-06-14T04:32:02;4.17;;;3.80;;
47882;SDS011;37739;50.350;7.578;2023-06-14T04:34:27;5.43;;;3.20;;
47882;SDS011;37739;50.350;7.578;2023-06-14T04:36:56;3.57;;;3.27;;
47882;SDS011;37739;50.350;7.578;2023-06-14T04:39:23;4.37;;;2.80;;
47882;SDS011;37739;50.350;7.578;2023-06-14T04:41:49;3.67;;;3.37;;
47882;SDS011;37739;50.350;7.578;2023-06-14T04:44:20;4.10;;;3.30;;
47882;SDS011;37739;50.350;7.578;2023-06-14T04:46:45;3.27;;;3.07;;
47882;SDS011;37739;50.350;7.578;2023-06-14T04:49:12;2.57;;;2.33;;
47882;SDS011;37739;50.350;7.578;2023-06-14T04:51:39;3.70;;;3.40;;
47882;SDS011;37739;50.350;7.578;2023-06-14T04:54:05;3.23;;;3.03;;
47882;SDS011;37739;50.350;7.578;2023-06-14T04:56:31;3.90;;;3.23;;
47882;SDS011;37739;50.350;7.578;2023-06-14T04:58:56;3.87;;;3.57;;
47882;SDS011;37739;50.350;7.578;2023-06-14T05:01:24;3.73;;;3.33;;
47882;SDS011;37739;50.350;7.578;2023-06-14T05:03:49;3.60;;;3.30;;
47882;SDS011;37739;50.350;7.578;2023-06-14T05:06:15;3.93;;;3.50;;
47882;SDS011;37739;50.350;7.578;2023-06-14T05:08:41;3.60;;;3.20;;
47882;SDS011;37739;50.350;7.578;2023-06-14T05:11:13;3.80;;;3.50;;
47882;SDS011;37739;50.350;7.578;2023-06-14T05:13:41;3.57;;;3.27;;
47882;SDS011;37739;50.350;7.578;2023-06-14T05:16:07;3.80;;;3.50;;
47882;SDS011;37739;50.350;7.578;2023-06-14T05:18:32;5.63;;;4.23;;
47882;SDS011;37739;50.350;7.578;2023-06-14T05:21:00;5.20;;;3.07;;
47882;SDS011;37739;50.350;7.578;2023-06-14T05:23:26;4.47;;;4.07;;
47882;SDS011;37739;50.350;7.578;2023-06-14T05:25:56;3.23;;;2.93;;
47882;SDS011;37739;50.350;7.578;2023-06-14T05:28:24;3.80;;;3.50;;
47882;SDS011;37739;50.350;7.578;2023-06-14T05:30:54;4.07;;;3.67;;
47882;SDS011;37739;50.350;7.578;2023-06-14T05:33:23;3.40;;;3.10;;
47882;SDS011;37739;50.350;7.578;2023-06-14T05:35:50;3.40;;;3.20;;
47882;SDS011;37739;50.350;7.578;2023-06-14T05:38:16;3.50;;;3.20;;
47882;SDS011;37739;50.350;7.578;2023-06-14T05:40:41;6.47;;;3.97;;
47882;SDS011;37739;50.350;7.578;2023-06-14T05:43:06;3.50;;;3.20;;
47882;SDS011;37739;50.350;7.578;2023-06-14T05:45:32;3.60;;;3.30;;
47882;SDS011;37739;50.350;7.578;2023-06-14T05:47:59;3.63;;;3.30;;
47882;SDS011;37739;50.350;7.578;2023-06-14T05:50:24;3.13;;;2.70;;
47882;SDS011;37739;50.350;7.578;2023-06-14T05:52:50;3.50;;;3.20;;
47882;SDS011;37739;50.350;7.578;2023-06-14T05:55:16;4.80;;;2.87;;
47882;SDS011;37739;50.350;7.578;2023-06-14T05:57:44;3.77;;;3.47;;
47882;SDS011;37739;50.350;7.578;2023-06-14T06:00:09;3.23;;;2.87;;
47882;SDS011;37739;50.350;7.578;2023-06-14T06:02:43;3.47;;;3.17;;
47882;SDS011;37739;50.350;7.578;2023-06-14T06:05:10;3.63;;;3.00;;
47882;SDS011;37739;50.350;7.578;2023-06-14T06:07:38;3.90;;;2.67;;
47882;SDS011;37739;50.350;7.578;2023-06-14T06:10:07;4.00;;;3.10;;
47882;SDS011;37739;50.350;7.578;2023-06-14T06:12:35;3.33;;;3.03;;
47882;SDS011;37739;50.350;7.578;2023-06-14T06:15:03;3.67;;;2.70;;
47882;SDS011;37739;50.350;7.578;2023-06-14T06:17:29;3.17;;;2.87;;
47882;SDS011;37739;50.350;7.578;2023-06-14T06:19:57;5.67;;;3.80;;
47882;SDS011;37739;50.350;7.578;2023-06-14T06:22:22;3.33;;;3.10;;
47882;SDS011;37739;50.350;7.578;2023-06-14T06:24:50;3.40;;;3.10;;
47882;SDS011;37739;50.350;7.578;2023-06-14T06:27:15;3.00;;;2.80;;
47882;SDS011;37739;50.350;7.578;2023-06-14T06:29:43;3.70;;;3.30;;
47882;SDS011;37739;50.350;7.578;2023-06-14T06:32:09;3.80;;;3.20;;
47882;SDS011;37739;50.350;7.578;2023-06-14T06:34:35;5.03;;;3.57;;
47882;SDS011;37739;50.350;7.578;2023-06-14T06:37:03;3.30;;;3.00;;
47882;SDS011;37739;50.350;7.578;2023-06-14T06:39:33;3.60;;;3.30;;
47882;SDS011;37739;50.350;7.578;2023-06-14T06:42:01;6.03;;;3.97;;
47882;SDS011;37739;50.350;7.578;2023-06-14T06:44:26;3.83;;;3.30;;
47882;SDS011;37739;50.350;7.578;2023-06-14T06:46:53;4.97;;;3.00;;
47882;SDS011;37739;50.350;7.578;2023-06-14T06:49:26;4.07;;;3.17;;
47882;SDS011;37739;50.350;7.578;2023-06-14T06:52:02;2.33;;;2.13;;
47882;SDS011;37739;50.350;7.578;2023-06-14T06:54:29;5.10;;;3.80;;
47882;SDS011;37739;50.350;7.578;2023-06-14T06:56:54;2.80;;;2.60;;
47882;SDS011;37739;50.350;7.578;2023-06-14T06:59:20;4.40;;;2.87;;
47882;SDS011;37739;50.350;7.578;2023-06-14T07:01:45;3.30;;;2.60;;
47882;SDS011;37739;50.350;7.578;2023-06-14T07:04:11;2.80;;;2.60;;
47882;SDS011;37739;50.350;7.578;2023-06-14T07:06:37;3.60;;;2.20;;
47882;SDS011;37739;50.350;7.578;2023-06-14T07:09:03;3.23;;;2.93;;
47882;SDS011;37739;50.350;7.578;2023-06-14T07:11:33;3.50;;;2.33;;
47882;SDS011;37739;50.350;7.578;2023-06-14T07:13:59;2.90;;;2.70;;
47882;SDS011;37739;50.350;7.578;2023-06-14T07:16:24;3.43;;;2.77;;
47882;SDS011;37739;50.350;7.578;2023-06-14T07:18:52;4.13;;;2.97;;
47882;SDS011;37739;50.350;7.578;2023-06-14T07:21:17;3.07;;;2.70;;
47882;SDS011;37739;50.350;7.578;2023-06-14T07:23:43;3.43;;;2.80;;
47882;SDS011;37739;50.350;7.578;2023-06-14T07:26:11;3.40;;;3.10;;
47882;SDS011;37739;50.350;7.578;2023-06-14T07:28:38;3.50;;;3.20;;
47882;SDS011;37739;50.350;7.578;2023-06-14T07:31:03;3.20;;;2.60;;
47882;SDS011;37739;50.350;7.578;2023-06-14T07:33:29;2.90;;;2.70;;
47882;SDS011;37739;50.350;7.578;2023-06-14T07:35:54;3.03;;;2.20;;
47882;SDS011;37739;50.350;7.578;2023-06-14T07:38:22;2.80;;;2.50;;
47882;SDS011;37739;50.350;7.578;2023-06-14T07:40:47;2.43;;;2.23;;
47882;SDS011;37739;50.350;7.578;2023-06-14T07:43:15;3.20;;;2.30;;
47882;SDS011;37739;50.350;7.578;2023-06-14T07:45:40;4.10;;;2.40;;
47882;SDS011;37739;50.350;7.578;2023-06-14T07:48:08;3.50;;;2.77;;
47882;SDS011;37739;50.350;7.578;2023-06-14T07:50:34;3.00;;;2.30;;
47882;SDS011;37739;50.350;7.578;2023-06-14T07:53:00;3.20;;;2.90;;
47882;SDS011;37739;50.350;7.578;2023-06-14T07:55:27;2.33;;;2.13;;
47882;SDS011;37739;50.350;7.578;2023-06-14T07:57:53;2.30;;;2.10;;
47882;SDS011;37739;50.350;7.578;2023-06-14T08:00:19;2.70;;;2.40;;
47882;SDS011;37739;50.350;7.578;2023-06-14T08:02:45;3.00;;;2.10;;
47882;SDS011;37739;50.350;7.578;2023-06-14T08:05:13;3.10;;;2.70;;
47882;SDS011;37739;50.350;7.578;2023-06-14T08:07:39;2.93;;;2.43;;
47882;SDS011;37739;50.350;7.578;2023-06-14T08:10:07;2.70;;;2.50;;
47882;SDS011;37739;50.350;7.578;2023-06-14T08:12:33;2.77;;;2.00;;
47882;SDS011;37739;50.350;7.578;2023-06-14T08:14:59;2.83;;;2.33;;
47882;SDS011;37739;50.350;7.578;2023-06-14T08:17:25;4.10;;;2.30;;
47882;SDS011;37739;50.350;7.578;2023-06-14T08:19:50;3.60;;;2.40;;
47882;SDS011;37739;50.350;7.578;2023-06-14T08:22:22;3.80;;;2.43;;
47882;SDS011;37739;50.350;7.578;2023-06-14T08:24:47;2.43;;;2.23;;
47882;SDS011;37739;50.350;7.578;2023-06-14T08:27:12;3.40;;;2.67;;
47882;SDS011;37739;50.350;7.578;2023-06-14T08:29:40;2.60;;;2.40;;
47882;SDS011;37739;50.350;7.578;2023-06-14T08:32:06;2.47;;;2.03;;
47882;SDS011;37739;50.350;7.578;2023-06-14T08:34:32;2.60;;;2.30;;
47882;SDS011;37739;50.350;7.578;2023-06-14T08:36:59;1.83;;;1.73;;
47882;SDS011;37739;50.350;7.578;2023-06-14T08:39:30;2.40;;;2.20;;
47882;SDS011;37739;50.350;7.578;2023-06-14T08:41:58;2.77;;;2.40;;
47882;SDS011;37739;50.350;7.578;2023-06-14T08:44:27;3.50;;;2.37;;
47882;SDS011;37739;50.350;7.578;2023-06-14T08:46:54;2.60;;;2.17;;
47882;SDS011;37739;50.350;7.578;2023-06-14T08:49:22;4.63;;;2.50;;
47882;SDS011;37739;50.350;7.578;2023-06-14T08:51:48;3.10;;;1.87;;
47882;SDS011;37739;50.350;7.578;2023-06-14T08:54:20;1.90;;;1.80;;
47882;SDS011;37739;50.350;7.578;2023-06-14T08:56:46;2.10;;;1.90;;
47882;SDS011;37739;50.350;7.578;2023-06-14T08:59:13;4.27;;;2.80;;
47882;SDS011;37739;50.350;7.578;2023-06-14T09:01:41;3.87;;;2.40;;
47882;SDS011;37739;50.350;7.578;2023-06-14T09:04:10;2.77;;;1.77;;
47882;SDS011;37739;50.350;7.578;2023-06-14T09:06:38;1.87;;;1.67;;
47882;SDS011;37739;50.350;7.578;2023-06-14T09:09:05;2.37;;;2.17;;
47882;SDS011;37739;50.350;7.578;2023-06-14T09:11:34;3.43;;;2.17;;
47882;SDS011;37739;50.350;7.578;2023-06-14T09:14:00;2.27;;;1.83;;
47882;SDS011;37739;50.350;7.578;2023-06-14T09:16:25;2.93;;;2.30;;
47882;SDS011;37739;50.350;7.578;2023-06-14T09:18:51;1.70;;;1.60;;
47882;SDS011;37739;50.350;7.578;2023-06-14T09:21:16;3.20;;;2.10;;
47882;SDS011;37739;50.350;7.578;2023-06-14T09:23:42;3.20;;;2.27;;
47882;SDS011;37739;50.350;7.578;2023-06-14T09:28:44;2.90;;;1.90;;
47882;SDS011;37739;50.350;7.578;2023-06-14T09:31:11;2.37;;;2.17;;
47882;SDS011;37739;50.350;7.578;2023-06-14T09:33:38;2.50;;;2.03;;
47882;SDS011;37739;50.350;7.578;2023-06-14T09:36:12;3.87;;;2.30;;
47882;SDS011;37739;50.350;7.578;2023-06-14T09:38:41;1.80;;;1.70;;
47882;SDS011;37739;50.350;7.578;2023-06-14T09:41:16;2.50;;;1.97;;
47882;SDS011;37739;50.350;7.578;2023-06-14T09:43:44;3.53;;;2.20;;
47882;SDS011;37739;50.350;7.578;2023-06-14T09:46:12;2.07;;;1.90;;
47882;SDS011;37739;50.350;7.578;2023-06-14T09:48:38;1.97;;;1.77;;
47882;SDS011;37739;50.350;7.578;2023-06-14T09:51:07;3.10;;;1.93;;
47882;SDS011;37739;50.350;7.578;2023-06-14T09:53:40;2.63;;;2.00;;
47882;SDS011;37739;50.350;7.578;2023-06-14T09:56:07;2.30;;;2.10;;
47882;SDS011;37739;50.350;7.578;2023-06-14T09:58:35;2.20;;;2.00;;
47882;SDS011;37739;50.350;7.578;2023-06-14T10:01:05;3.53;;;2.10;;
47882;SDS011;37739;50.350;7.578;2023-06-14T10:03:33;2.57;;;1.90;;
47882;SDS011;37739;50.350;7.578;2023-06-14T10:06:02;2.83;;;2.40;;
47882;SDS011;37739;50.350;7.578;2023-06-14T10:08:32;2.20;;;1.60;;
47882;SDS011;37739;50.350;7.578;2023-06-14T10:11:02;2.23;;;2.03;;
47882;SDS011;37739;50.350;7.578;2023-06-14T10:13:30;3.50;;;2.17;;
47882;SDS011;37739;50.350;7.578;2023-06-14T10:16:05;2.03;;;1.83;;
47882;SDS011;37739;50.350;7.578;2023-06-14T10:24:14;1.53;;;1.43;;
47882;SDS011;37739;50.350;7.578;2023-06-14T10:26:53;2.10;;;1.70;;
47882;SDS011;37739;50.350;7.578;2023-06-14T10:29:24;3.40;;;1.90;;
47882;SDS011;37739;50.350;7.578;2023-06-14T10:31:50;2.30;;;1.53;;
47882;SDS011;37739;50.350;7.578;2023-06-14T10:37:01;3.40;;;2.10;;
47882;SDS011;37739;50.350;7.578;2023-06-14T10:39:40;2.00;;;1.50;;
47882;SDS011;37739;50.350;7.578;2023-06-14T10:42:06;2.63;;;1.40;;
47882;SDS011;37739;50.350;7.578;2023-06-14T10:47:05;3.73;;;1.90;;
47882;SDS011;37739;50.350;7.578;2023-06-14T10:49:43;2.90;;;1.57;;
47882;SDS011;37739;50.350;7.578;2023-06-14T10:52:20;3.73;;;1.57;;
47882;SDS011;37739;50.350;7.578;2023-06-14T10:57:36;1.73;;;1.63;;
47882;SDS011;37739;50.350;7.578;2023-06-14T11:00:07;1.70;;;1.60;;
47882;SDS011;37739;50.350;7.578;2023-06-14T11:03:22;2.63;;;1.60;;
47882;SDS011;37739;50.350;7.578;2023-06-14T11:06:01;2.57;;;1.50;;
47882;SDS011;37739;50.350;7.578;2023-06-14T11:11:23;2.37;;;1.40;;
47882;SDS011;37739;50.350;7.578;2023-06-14T11:13:54;2.03;;;1.60;;
47882;SDS011;37739;50.350;7.578;2023-06-14T11:16:22;3.00;;;1.63;;
47882;SDS011;37739;50.350;7.578;2023-06-14T11:18:51;1.90;;;1.60;;
47882;SDS011;37739;50.350;7.578;2023-06-14T11:21:18;2.00;;;1.30;;
47882;SDS011;37739;50.350;7.578;2023-06-14T11:23:53;1.90;;;1.33;;
47882;SDS011;37739;50.350;7.578;2023-06-14T11:26:30;1.73;;;1.40;;
47882;SDS011;37739;50.350;7.578;2023-06-14T11:29:00;1.70;;;1.57;;
47882;SDS011;37739;50.350;7.578;2023-06-14T11:31:26;2.50;;;1.30;;
47882;SDS011;37739;50.350;7.578;2023-06-14T11:33:58;1.73;;;1.50;;
47882;SDS011;37739;50.350;7.578;2023-06-14T11:36:26;1.60;;;1.27;;
47882;SDS011;37739;50.350;7.578;2023-06-14T11:38:58;2.40;;;1.60;;
47882;SDS011;37739;50.350;7.578;2023-06-14T11:41:24;1.90;;;1.80;;
47882;SDS011;37739;50.350;7.578;2023-06-14T11:43:55;1.80;;;1.70;;
47882;SDS011;37739;50.350;7.578;2023-06-14T11:46:22;1.73;;;1.53;;
47882;SDS011;37739;50.350;7.578;2023-06-14T11:48:55;1.50;;;1.30;;
47882;SDS011;37739;50.350;7.578;2023-06-14T11:51:20;1.43;;;1.33;;
47882;SDS011;37739;50.350;7.578;2023-06-14T11:53:48;2.00;;;1.90;;
47882;SDS011;37739;50.350;7.578;2023-06-14T11:56:14;2.17;;;1.77;;
47882;SDS011;37739;50.350;7.578;2023-06-14T11:58:44;2.73;;;2.10;;
47882;SDS011;37739;50.350;7.578;2023-06-14T12:01:13;2.57;;;1.73;;
47882;SDS011;37739;50.350;7.578;2023-06-14T12:03:40;2.07;;;1.60;;
47882;SDS011;37739;50.350;7.578;2023-06-14T12:06:24;2.77;;;1.50;;
47882;SDS011;37739;50.350;7.578;2023-06-14T12:08:55;2.53;;;1.60;;
47882;SDS011;37739;50.350;7.578;2023-06-14T12:11:21;1.57;;;1.47;;
47882;SDS011;37739;50.350;7.578;2023-06-14T12:13:46;2.77;;;1.60;;
47882;SDS011;37739;50.350;7.578;2023-06-14T12:16:18;2.00;;;1.80;;
47882;SDS011;37739;50.350;7.578;2023-06-14T12:18:46;1.97;;;1.80;;
47882;SDS011;37739;50.350;7.578;2023-06-14T12:21:13;3.20;;;1.90;;
47882;SDS011;37739;50.350;7.578;2023-06-14T12:23:44;2.00;;;1.70;;
47882;SDS011;37739;50.350;7.578;2023-06-14T12:26:20;2.40;;;2.20;;
47882;SDS011;37739;50.350;7.578;2023-06-14T12:28:52;1.93;;;1.83;;
47882;SDS011;37739;50.350;7.578;2023-06-14T12:31:19;2.30;;;2.03;;
47882;SDS011;37739;50.350;7.578;2023-06-14T12:33:46;1.97;;;1.80;;
47882;SDS011;37739;50.350;7.578;2023-06-14T12:36:13;2.20;;;1.90;;
47882;SDS011;37739;50.350;7.578;2023-06-14T12:38:42;2.10;;;2.00;;
47882;SDS011;37739;50.350;7.578;2023-06-14T12:41:10;2.73;;;2.10;;
47882;SDS011;37739;50.350;7.578;2023-06-14T12:43:35;2.07;;;1.87;;
47882;SDS011;37739;50.350;7.578;2023-06-14T12:46:03;3.00;;;1.90;;
47882;SDS011;37739;50.350;7.578;2023-06-14T12:48:28;2.10;;;1.90;;
47882;SDS011;37739;50.350;7.578;2023-06-14T12:50:56;2.20;;;2.00;;
47882;SDS011;37739;50.350;7.578;2023-06-14T12:53:22;3.73;;;2.03;;
47882;SDS011;37739;50.350;7.578;2023-06-14T12:55:48;2.40;;;2.20;;
47882;SDS011;37739;50.350;7.578;2023-06-14T12:58:13;3.27;;;1.90;;
47882;SDS011;37739;50.350;7.578;2023-06-14T13:00:39;2.57;;;2.00;;
47882;SDS011;37739;50.350;7.578;2023-06-14T13:03:04;2.00;;;1.60;;
47882;SDS011;37739;50.350;7.578;2023-06-14T13:05:30;2.60;;;2.20;;
47882;SDS011;37739;50.350;7.578;2023-06-14T13:07:58;2.47;;;1.80;;
47882;SDS011;37739;50.350;7.578;2023-06-14T13:10:23;3.10;;;2.00;;
47882;SDS011;37739;50.350;7.578;2023-06-14T13:12:49;1.90;;;1.70;;
47882;SDS011;37739;50.350;7.578;2023-06-14T13:15:16;2.33;;;2.00;;
47882;SDS011;37739;50.350;7.578;2023-06-14T13:17:42;2.47;;;2.17;;
47882;SDS011;37739;50.350;7.578;2023-06-14T13:20:09;2.20;;;2.00;;
47882;SDS011;37739;50.350;7.578;2023-06-14T13:22:36;2.03;;;1.83;;
47882;SDS011;37739;50.350;7.578;2023-06-14T13:25:07;2.23;;;1.70;;
47882;SDS011;37739;50.350;7.578;2023-06-14T13:27:33;2.07;;;1.60;;
47882;SDS011;37739;50.350;7.578;2023-06-14T13:30:00;3.07;;;1.97;;
47882;SDS011;37739;50.350;7.578;2023-06-14T13:32:30;2.10;;;1.90;;
47882;SDS011;37739;50.350;7.578;2023-06-14T13:34:55;2.23;;;1.70;;
47882;SDS011;37739;50.350;7.578;2023-06-14T13:37:23;2.90;;;1.70;;
47882;SDS011;37739;50.350;7.578;2023-06-14T13:39:51;2.53;;;2.07;;
47882;SDS011;37739;50.350;7.578;2023-06-14T13:42:21;3.23;;;2.43;;
47882;SDS011;37739;50.350;7.578;2023-06-14T13:44:46;1.73;;;1.50;;
47882;SDS011;37739;50.350;7.578;2023-06-14T13:47:12;1.80;;;1.70;;
47882;SDS011;37739;50.350;7.578;2023-06-14T13:49:37;3.00;;;1.77;;
47882;SDS011;37739;50.350;7.578;2023-06-14T13:52:02;2.33;;;2.00;;
47882;SDS011;37739;50.350;7.578;2023-06-14T13:54:28;3.80;;;1.70;;
47882;SDS011;37739;50.350;7.578;2023-06-14T13:56:58;2.30;;;1.60;;
47882;SDS011;37739;50.350;7.578;2023-06-14T13:59:23;1.70;;;1.60;;
47882;SDS011;37739;50.350;7.578;2023-06-14T14:01:49;2.13;;;1.80;;
47882;SDS011;37739;50.350;7.578;2023-06-14T14:04:16;2.37;;;1.63;;
47882;SDS011;37739;50.350;7.578;2023-06-14T14:06:42;2.23;;;1.93;;
47882;SDS011;37739;50.350;7.578;2023-06-14T14:09:08;1.80;;;1.70;;
47882;SDS011;37739;50.350;7.578;2023-06-14T14:11:33;2.93;;;1.90;;
47882;SDS011;37739;50.350;7.578;2023-06-14T14:14:01;1.90;;;1.70;;
47882;SDS011;37739;50.350;7.578;2023-06-14T14:16:29;2.10;;;2.00;;
47882;SDS011;37739;50.350;7.578;2023-06-14T14:18:55;2.07;;;1.70;;
47882;SDS011;37739;50.350;7.578;2023-06-14T14:21:21;3.23;;;1.90;;
47882;SDS011;37739;50.350;7.578;2023-06-14T14:23:48;1.83;;;1.60;;
47882;SDS011;37739;50.350;7.578;2023-06-14T14:26:14;2.00;;;1.80;;
47882;SDS011;37739;50.350;7.578;2023-06-14T14:28:43;2.70;;;1.93;;
47882;SDS011;37739;50.350;7.578;2023-06-14T14:31:11;2.57;;;1.73;;
47882;SDS011;37739;50.350;7.578;2023-06-14T14:33:36;2.37;;;1.70;;
47882;SDS011;37739;50.350;7.578;2023-06-14T14:36:02;2.73;;;2.10;;
47882;SDS011;37739;50.350;7.578;2023-06-14T14:38:33;2.40;;;2.20;;
47882;SDS011;37739;50.350;7.578;2023-06-14T14:40:58;2.40;;;1.80;;
47882;SDS011;37739;50.350;7.578;2023-06-14T14:43:26;2.03;;;1.87;;
47882;SDS011;37739;50.350;7.578;2023-06-14T14:45:55;2.50;;;1.80;;
47882;SDS011;37739;50.350;7.578;2023-06-14T14:48:21;2.33;;;2.10;;
47882;SDS011;37739;50.350;7.578;2023-06-14T14:50:46;2.10;;;1.90;;
47882;SDS011;37739;50.350;7.578;2023-06-14T14:53:12;1.90;;;1.73;;
47882;SDS011;37739;50.350;7.578;2023-06-14T14:55:41;2.00;;;1.80;;
47882;SDS011;37739;50.350;7.578;2023-06-14T14:58:07;2.03;;;1.70;;
47882;SDS011;37739;50.350;7.578;2023-06-14T15:00:33;1.70;;;1.60;;
47882;SDS011;37739;50.350;7.578;2023-06-14T15:03:03;2.27;;;2.07;;
47882;SDS011;37739;50.350;7.578;2023-06-14T15:05:31;1.93;;;1.73;;
47882;SDS011;37739;50.350;7.578;2023-06-14T15:07:56;2.20;;;1.80;;
47882;SDS011;37739;50.350;7.578;2023-06-14T15:10:21;1.97;;;1.77;;
47882;SDS011;37739;50.350;7.578;2023-06-14T15:12:47;2.53;;;2.23;;
47882;SDS011;37739;50.350;7.578;2023-06-14T15:15:12;2.57;;;1.97;;